createdAt,value
2023-02-02T00:00:13.720Z,86.65
2023-02-02T00:00:44.636Z,87.07
2023-02-02T00:01:15.548Z,87.07
2023-02-02T00:01:46.461Z,86.96
2023-02-02T00:02:17.381Z,87.07
2023-02-02T00:02:48.321Z,86.96
2023-02-02T00:03:19.260Z,87.07
2023-02-02T00:03:50.245Z,87.17
2023-02-02T00:04:20.668Z,87.27
2023-02-02T00:04:51.580Z,87.07
2023-02-02T00:05:22.858Z,87.07
2023-02-02T00:05:53.383Z,87.07
2023-02-02T00:06:24.326Z,87.27
2023-02-02T00:06:55.254Z,87.38
2023-02-02T00:07:26.198Z,87.38
2023-02-02T00:07:57.103Z,87.38
2023-02-02T00:08:28.019Z,87.27
2023-02-02T00:08:58.958Z,87.38
2023-02-02T00:09:29.890Z,87.59
2023-02-02T00:10:00.831Z,87.38
2023-02-02T00:10:31.772Z,87.48
2023-02-02T00:11:02.671Z,87.69
2023-02-02T00:11:33.616Z,87.79
2023-02-02T00:12:04.600Z,87.48
2023-02-02T00:12:35.498Z,87.38
2023-02-02T00:13:06.384Z,87.27
2023-02-02T00:13:37.295Z,87.27
2023-02-02T00:14:08.278Z,87.38
2023-02-02T00:14:38.722Z,87.38
2023-02-02T00:15:09.683Z,87.59
2023-02-02T00:15:40.617Z,87.38
2023-02-02T00:16:11.610Z,87.38
2023-02-02T00:16:42.048Z,87.59
2023-02-02T00:17:12.967Z,87.59
2023-02-02T00:17:43.889Z,87.38
2023-02-02T00:18:14.786Z,87.07
2023-02-02T00:18:45.757Z,87.27
2023-02-02T00:19:16.226Z,87.59
2023-02-02T00:19:47.151Z,88.00
2023-02-02T00:20:18.108Z,88.21
2023-02-02T00:20:49.012Z,87.90
2023-02-02T00:21:19.950Z,87.90
2023-02-02T00:21:50.908Z,88.10
2023-02-02T00:22:21.833Z,87.59
2023-02-02T00:22:52.785Z,87.48
2023-02-02T00:23:23.693Z,87.59
2023-02-02T00:23:54.609Z,87.38
2023-02-02T00:24:25.543Z,87.27
2023-02-02T00:24:56.436Z,87.27
2023-02-02T00:25:27.334Z,87.38
2023-02-02T00:25:58.245Z,87.59
2023-02-02T00:26:29.206Z,87.38
2023-02-02T00:27:00.306Z,87.48
2023-02-02T00:27:30.726Z,87.59
2023-02-02T00:28:01.623Z,87.38
2023-02-02T00:28:32.517Z,87.79
2023-02-02T00:29:03.423Z,88.00
2023-02-02T00:29:34.360Z,88.10
2023-02-02T00:30:05.271Z,88.00
2023-02-02T00:30:36.193Z,87.59
2023-02-02T00:31:07.188Z,87.38
2023-02-02T00:31:38.169Z,87.38
2023-02-02T00:32:09.102Z,87.27
2023-02-02T00:32:40.039Z,87.17
2023-02-02T00:33:10.962Z,87.07
2023-02-02T00:33:41.852Z,87.17
2023-02-02T00:34:12.783Z,87.27
2023-02-02T00:34:43.714Z,87.59
2023-02-02T00:35:14.650Z,87.79
2023-02-02T00:35:45.638Z,87.38
2023-02-02T00:36:16.582Z,87.27
2023-02-02T00:36:47.490Z,87.27
2023-02-02T00:37:18.416Z,86.96
2023-02-02T00:37:49.356Z,86.86
2023-02-02T00:38:20.326Z,86.86
2023-02-02T00:38:50.797Z,87.17
2023-02-02T00:39:21.718Z,87.27
2023-02-02T00:39:52.621Z,87.27
2023-02-02T00:40:23.536Z,87.38
2023-02-02T00:40:54.432Z,87.59
2023-02-02T00:41:25.420Z,87.38
2023-02-02T00:41:55.837Z,87.27
2023-02-02T00:42:26.757Z,87.07
2023-02-02T00:42:57.650Z,86.96
2023-02-02T00:43:28.581Z,86.96
2023-02-02T00:43:59.503Z,86.55
2023-02-02T00:44:30.418Z,86.24
2023-02-02T00:45:01.322Z,86.55
2023-02-02T00:45:32.332Z,86.65
2023-02-02T00:46:02.760Z,86.34
2023-02-02T00:46:33.693Z,86.34
2023-02-02T00:47:04.601Z,86.13
2023-02-02T00:47:35.533Z,86.65
2023-02-02T00:48:06.453Z,86.86
2023-02-02T00:48:37.377Z,86.44
2023-02-02T00:49:08.304Z,86.24
2023-02-02T00:49:39.230Z,86.34
2023-02-02T00:50:10.116Z,86.34
2023-02-02T00:50:41.031Z,86.55
2023-02-02T00:51:11.974Z,86.65
2023-02-02T00:51:42.916Z,86.76
2023-02-02T00:52:13.829Z,86.86
2023-02-02T00:52:44.802Z,86.86
2023-02-02T00:53:15.720Z,86.55
2023-02-02T00:53:46.669Z,86.65
2023-02-02T00:54:17.574Z,87.07
2023-02-02T00:54:48.474Z,87.17
2023-02-02T00:55:19.411Z,86.96
2023-02-02T00:55:50.344Z,87.07
2023-02-02T00:56:21.247Z,86.96
2023-02-02T00:56:52.176Z,86.76
2023-02-02T00:57:23.102Z,87.07
2023-02-02T00:57:54.008Z,86.96
2023-02-02T00:58:24.932Z,86.96
2023-02-02T00:58:55.870Z,86.96
2023-02-02T00:59:26.840Z,87.07
2023-02-02T00:59:57.727Z,86.86
2023-02-02T01:00:28.641Z,86.86
2023-02-02T01:00:59.608Z,86.86
2023-02-02T01:01:30.528Z,86.96
2023-02-02T01:02:01.550Z,86.86
2023-02-02T01:02:32.058Z,86.65
2023-02-02T01:03:03.538Z,86.76
2023-02-02T01:03:33.463Z,86.76
2023-02-02T01:04:04.422Z,86.76
2023-02-02T01:04:35.309Z,86.86
2023-02-02T01:05:06.223Z,86.86
2023-02-02T01:05:37.135Z,86.86
2023-02-02T01:06:08.059Z,87.17
2023-02-02T01:06:38.980Z,87.17
2023-02-02T01:07:09.889Z,87.07
2023-02-02T01:07:40.814Z,86.96
2023-02-02T01:08:11.738Z,86.76
2023-02-02T01:08:42.634Z,86.86
2023-02-02T01:09:13.599Z,86.96
2023-02-02T01:09:44.487Z,86.96
2023-02-02T01:10:15.428Z,86.65
2023-02-02T01:10:46.341Z,86.76
2023-02-02T01:11:17.254Z,86.96
2023-02-02T01:11:48.181Z,86.96
2023-02-02T01:12:19.093Z,86.86
2023-02-02T01:12:50.018Z,86.76
2023-02-02T01:13:20.967Z,86.76
2023-02-02T01:13:51.886Z,86.86
2023-02-02T01:14:22.820Z,86.76
2023-02-02T01:14:53.741Z,86.86
2023-02-02T01:15:25.045Z,86.86
2023-02-02T01:15:55.625Z,86.86
2023-02-02T01:16:26.610Z,86.34
2023-02-02T01:16:57.540Z,86.13
2023-02-02T01:17:28.460Z,86.55
2023-02-02T01:17:59.365Z,86.65
2023-02-02T01:18:30.281Z,86.55
2023-02-02T01:19:01.193Z,86.44
2023-02-02T01:19:32.092Z,86.44
2023-02-02T01:20:03.011Z,86.55
2023-02-02T01:20:33.966Z,86.65
2023-02-02T01:21:04.894Z,86.86
2023-02-02T01:21:35.808Z,86.76
2023-02-02T01:22:06.759Z,86.44
2023-02-02T01:22:37.716Z,86.13
2023-02-02T01:23:08.622Z,86.13
2023-02-02T01:23:39.535Z,85.88
2023-02-02T01:24:10.474Z,85.93
2023-02-02T01:24:41.404Z,86.09
2023-02-02T01:25:12.303Z,86.30
2023-02-02T01:25:43.236Z,86.19
2023-02-02T01:26:14.154Z,86.19
2023-02-02T01:26:45.155Z,86.09
2023-02-02T01:27:15.603Z,86.09
2023-02-02T01:27:46.534Z,86.19
2023-02-02T01:28:17.450Z,86.19
2023-02-02T01:28:48.417Z,86.51
2023-02-02T01:29:19.349Z,86.41
2023-02-02T01:29:50.263Z,86.19
2023-02-02T01:30:21.163Z,86.19
2023-02-02T01:30:52.152Z,86.19
2023-02-02T01:31:23.100Z,86.41
2023-02-02T01:31:54.034Z,86.41
2023-02-02T01:32:24.931Z,86.41
2023-02-02T01:32:55.877Z,86.30
2023-02-02T01:33:26.766Z,86.19
2023-02-02T01:33:57.696Z,85.88
2023-02-02T01:34:28.601Z,86.09
2023-02-02T01:34:59.555Z,86.19
2023-02-02T01:35:30.464Z,85.88
2023-02-02T01:36:01.348Z,86.30
2023-02-02T01:36:32.265Z,86.61
2023-02-02T01:37:03.173Z,86.30
2023-02-02T01:37:34.092Z,86.19
2023-02-02T01:38:05.005Z,86.19
2023-02-02T01:38:35.924Z,86.30
2023-02-02T01:39:06.843Z,86.09
2023-02-02T01:39:37.771Z,86.19
2023-02-02T01:40:08.716Z,85.99
2023-02-02T01:40:39.616Z,86.19
2023-02-02T01:41:10.564Z,86.41
2023-02-02T01:41:41.469Z,86.41
2023-02-02T01:42:12.412Z,86.30
2023-02-02T01:42:43.333Z,86.41
2023-02-02T01:43:14.228Z,86.51
2023-02-02T01:43:45.162Z,86.30
2023-02-02T01:44:16.103Z,86.30
2023-02-02T01:44:47.070Z,86.30
2023-02-02T01:45:17.999Z,86.41
2023-02-02T01:45:48.956Z,86.61
2023-02-02T01:46:19.929Z,86.72
2023-02-02T01:46:50.868Z,86.51
2023-02-02T01:47:21.750Z,86.30
2023-02-02T01:47:52.637Z,86.41
2023-02-02T01:48:23.564Z,86.09
2023-02-02T01:48:54.458Z,86.19
2023-02-02T01:49:25.359Z,86.41
2023-02-02T01:49:56.294Z,86.30
2023-02-02T01:50:27.222Z,86.41
2023-02-02T01:50:58.155Z,86.72
2023-02-02T01:51:29.101Z,86.61
2023-02-02T01:52:00.016Z,86.61
2023-02-02T01:52:30.961Z,86.41
2023-02-02T01:53:01.885Z,86.51
2023-02-02T01:53:32.795Z,86.09
2023-02-02T01:54:03.709Z,85.99
2023-02-02T01:54:34.631Z,86.19
2023-02-02T01:55:05.573Z,86.19
2023-02-02T01:55:36.526Z,86.30
2023-02-02T01:56:07.471Z,86.41
2023-02-02T01:56:38.359Z,86.30
2023-02-02T01:57:09.318Z,86.41
2023-02-02T01:57:40.245Z,86.30
2023-02-02T01:58:11.167Z,86.61
2023-02-02T01:58:42.065Z,86.51
2023-02-02T01:59:13.010Z,86.41
2023-02-02T01:59:43.912Z,86.30
2023-02-02T02:00:47.087Z,86.51
2023-02-02T02:01:16.611Z,86.72
2023-02-02T02:01:47.527Z,86.93
2023-02-02T02:02:18.525Z,86.72
2023-02-02T02:02:49.437Z,86.93
2023-02-02T02:03:20.348Z,86.93
2023-02-02T02:03:51.282Z,86.72
2023-02-02T02:04:22.198Z,86.82
2023-02-02T02:04:53.107Z,86.82
2023-02-02T02:05:24.287Z,86.61
2023-02-02T02:05:54.889Z,86.61
2023-02-02T02:06:25.816Z,86.72
2023-02-02T02:06:56.760Z,86.82
2023-02-02T02:07:27.657Z,86.82
2023-02-02T02:07:58.624Z,86.93
2023-02-02T02:08:29.532Z,86.93
2023-02-02T02:09:00.428Z,87.13
2023-02-02T02:09:31.363Z,87.03
2023-02-02T02:10:02.267Z,87.03
2023-02-02T02:10:33.153Z,87.17
2023-02-02T02:11:04.118Z,87.07
2023-02-02T02:11:35.039Z,86.96
2023-02-02T02:12:05.962Z,87.17
2023-02-02T02:12:36.877Z,87.17
2023-02-02T02:13:07.795Z,87.07
2023-02-02T02:13:38.700Z,87.24
2023-02-02T02:14:09.618Z,87.17
2023-02-02T02:14:40.524Z,87.17
2023-02-02T02:15:11.431Z,87.48
2023-02-02T02:15:42.347Z,87.38
2023-02-02T02:16:13.356Z,87.69
2023-02-02T02:16:44.328Z,87.38
2023-02-02T02:17:14.776Z,87.27
2023-02-02T02:17:45.689Z,87.48
2023-02-02T02:18:16.627Z,87.27
2023-02-02T02:18:47.556Z,87.38
2023-02-02T02:19:18.513Z,87.48
2023-02-02T02:19:49.402Z,87.48
2023-02-02T02:20:20.318Z,87.59
2023-02-02T02:20:51.252Z,87.59
2023-02-02T02:21:22.175Z,87.48
2023-02-02T02:21:53.091Z,87.48
2023-02-02T02:22:24.012Z,87.69
2023-02-02T02:22:54.931Z,87.59
2023-02-02T02:23:25.893Z,87.59
2023-02-02T02:23:56.820Z,87.69
2023-02-02T02:24:27.733Z,87.79
2023-02-02T02:24:58.690Z,87.90
2023-02-02T02:25:29.588Z,87.79
2023-02-02T02:26:00.632Z,87.79
2023-02-02T02:26:31.113Z,87.79
2023-02-02T02:27:02.010Z,87.79
2023-02-02T02:27:32.912Z,87.90
2023-02-02T02:28:03.866Z,87.90
2023-02-02T02:28:34.758Z,87.90
2023-02-02T02:29:05.722Z,87.79
2023-02-02T02:29:36.630Z,87.79
2023-02-02T02:30:07.538Z,87.79
2023-02-02T02:30:38.600Z,88.00
2023-02-02T02:31:09.180Z,88.10
2023-02-02T02:31:39.714Z,88.00
2023-02-02T02:32:10.158Z,87.90
2023-02-02T02:32:41.137Z,87.69
2023-02-02T02:33:12.039Z,87.79
2023-02-02T02:33:42.949Z,87.79
2023-02-02T02:34:13.863Z,87.90
2023-02-02T02:34:44.788Z,87.79
2023-02-02T02:35:15.675Z,87.48
2023-02-02T02:35:46.579Z,87.38
2023-02-02T02:36:17.561Z,87.59
2023-02-02T02:36:48.520Z,87.69
2023-02-02T02:37:19.473Z,87.69
2023-02-02T02:37:50.358Z,87.69
2023-02-02T02:38:21.308Z,87.59
2023-02-02T02:38:52.237Z,87.59
2023-02-02T02:39:23.152Z,87.27
2023-02-02T02:39:54.116Z,87.27
2023-02-02T02:40:55.929Z,87.79
2023-02-02T02:41:26.871Z,87.69
2023-02-02T02:41:57.809Z,87.59
2023-02-02T02:42:28.750Z,87.69
2023-02-02T02:42:59.724Z,87.59
2023-02-02T02:43:30.631Z,88.00
2023-02-02T02:44:01.577Z,87.90
2023-02-02T02:44:32.520Z,88.10
2023-02-02T02:45:03.461Z,88.21
2023-02-02T02:45:34.392Z,88.00
2023-02-02T02:46:05.391Z,88.00
2023-02-02T02:46:36.321Z,88.00
2023-02-02T02:47:07.238Z,88.10
2023-02-02T02:47:38.185Z,88.00
2023-02-02T02:48:09.122Z,87.90
2023-02-02T02:48:40.037Z,88.10
2023-02-02T02:49:10.970Z,88.00
2023-02-02T02:49:41.896Z,88.10
2023-02-02T02:50:12.808Z,88.21
2023-02-02T02:50:43.752Z,88.00
2023-02-02T02:51:14.662Z,87.90
2023-02-02T02:51:45.564Z,88.21
2023-02-02T02:52:16.500Z,88.42
2023-02-02T02:52:47.457Z,88.42
2023-02-02T02:53:18.377Z,88.62
2023-02-02T02:53:49.345Z,88.73
2023-02-02T02:54:20.249Z,88.94
2023-02-02T02:54:51.160Z,89.36
2023-02-02T02:55:22.362Z,89.25
2023-02-02T02:55:52.805Z,89.46
2023-02-02T02:56:23.781Z,89.77
2023-02-02T02:56:54.670Z,89.98
2023-02-02T02:57:25.616Z,89.98
2023-02-02T02:57:56.582Z,90.50
2023-02-02T02:58:27.515Z,90.50
2023-02-02T02:58:58.430Z,90.19
2023-02-02T02:59:29.335Z,90.29
2023-02-02T03:00:00.241Z,90.08
2023-02-02T03:00:31.154Z,90.29
2023-02-02T03:01:02.087Z,90.60
2023-02-02T03:01:33.056Z,90.60
2023-02-02T03:02:03.964Z,90.50
2023-02-02T03:03:05.853Z,90.70
2023-02-02T03:03:36.775Z,90.91
2023-02-02T03:04:07.686Z,91.12
2023-02-02T03:04:38.649Z,90.91
2023-02-02T03:05:09.555Z,90.81
2023-02-02T03:05:40.510Z,91.12
2023-02-02T03:06:11.445Z,91.27
2023-02-02T03:06:42.382Z,91.06
2023-02-02T03:07:13.318Z,90.85
2023-02-02T03:07:44.223Z,91.06
2023-02-02T03:08:15.146Z,90.95
2023-02-02T03:08:46.052Z,90.75
2023-02-02T03:09:16.951Z,91.06
2023-02-02T03:09:47.989Z,91.16
2023-02-02T03:10:18.442Z,91.16
2023-02-02T03:10:49.345Z,90.95
2023-02-02T03:11:20.239Z,91.27
2023-02-02T03:11:51.169Z,91.16
2023-02-02T03:12:22.076Z,90.95
2023-02-02T03:12:53.009Z,91.16
2023-02-02T03:13:23.930Z,91.16
2023-02-02T03:13:54.865Z,91.68
2023-02-02T03:14:25.783Z,91.47
2023-02-02T03:14:56.762Z,91.58
2023-02-02T03:15:27.675Z,91.78
2023-02-02T03:15:58.702Z,91.89
2023-02-02T03:16:29.151Z,92.20
2023-02-02T03:17:00.096Z,91.89
2023-02-02T03:17:30.990Z,91.68
2023-02-02T03:18:01.906Z,91.89
2023-02-02T03:18:32.827Z,91.78
2023-02-02T03:19:03.769Z,91.99
2023-02-02T03:19:34.694Z,91.68
2023-02-02T03:20:05.597Z,91.58
2023-02-02T03:20:36.513Z,91.58
2023-02-02T03:21:07.499Z,91.47
2023-02-02T03:21:38.013Z,91.37
2023-02-02T03:22:08.903Z,91.68
2023-02-02T03:22:39.819Z,91.89
2023-02-02T03:23:11.446Z,91.78
2023-02-02T03:23:41.418Z,92.20
2023-02-02T03:24:12.325Z,92.20
2023-02-02T03:24:43.296Z,92.10
2023-02-02T03:25:14.214Z,92.20
2023-02-02T03:25:45.208Z,91.99
2023-02-02T03:26:16.264Z,91.99
2023-02-02T03:26:46.766Z,91.89
2023-02-02T03:27:17.270Z,91.78
2023-02-02T03:27:47.720Z,91.78
2023-02-02T03:28:18.679Z,91.89
2023-02-02T03:28:49.582Z,92.10
2023-02-02T03:29:20.464Z,91.99
2023-02-02T03:29:51.400Z,92.30
2023-02-02T03:30:22.417Z,92.30
2023-02-02T03:30:52.933Z,92.20
2023-02-02T03:31:23.419Z,92.41
2023-02-02T03:31:54.424Z,92.61
2023-02-02T03:32:24.870Z,92.93
2023-02-02T03:32:55.796Z,92.82
2023-02-02T03:33:26.713Z,92.51
2023-02-02T03:33:57.626Z,92.51
2023-02-02T03:34:28.539Z,92.41
2023-02-02T03:34:59.432Z,92.51
2023-02-02T03:35:30.326Z,92.20
2023-02-02T03:36:01.231Z,91.99
2023-02-02T03:36:32.128Z,91.99
2023-02-02T03:37:03.076Z,91.99
2023-02-02T03:37:33.990Z,92.10
2023-02-02T03:38:04.913Z,92.51
2023-02-02T03:38:35.813Z,92.41
2023-02-02T03:39:06.809Z,92.41
2023-02-02T03:39:37.731Z,92.41
2023-02-02T03:40:08.658Z,92.20
2023-02-02T03:40:39.149Z,92.41
2023-02-02T03:41:10.059Z,92.82
2023-02-02T03:41:40.940Z,92.72
2023-02-02T03:42:11.865Z,92.41
2023-02-02T03:42:42.843Z,91.99
2023-02-02T03:43:13.322Z,91.89
2023-02-02T03:43:44.276Z,91.89
2023-02-02T03:44:15.152Z,91.99
2023-02-02T03:44:46.138Z,92.30
2023-02-02T03:45:17.112Z,92.30
2023-02-02T03:45:48.063Z,91.99
2023-02-02T03:46:19.042Z,91.68
2023-02-02T03:46:49.993Z,91.64
2023-02-02T03:47:20.473Z,91.68
2023-02-02T03:47:51.457Z,91.68
2023-02-02T03:48:22.406Z,91.68
2023-02-02T03:48:53.323Z,91.33
2023-02-02T03:49:24.283Z,91.43
2023-02-02T03:49:55.201Z,91.64
2023-02-02T03:50:26.130Z,91.37
2023-02-02T03:50:57.102Z,91.12
2023-02-02T03:51:28.012Z,91.27
2023-02-02T03:51:58.953Z,91.22
2023-02-02T03:52:29.911Z,91.12
2023-02-02T03:53:00.817Z,91.02
2023-02-02T03:53:31.765Z,91.12
2023-02-02T03:54:02.680Z,91.33
2023-02-02T03:54:33.578Z,91.22
2023-02-02T03:55:04.476Z,91.12
2023-02-02T03:56:06.318Z,91.12
2023-02-02T03:56:37.245Z,91.12
2023-02-02T03:57:08.226Z,91.33
2023-02-02T03:57:39.134Z,91.33
2023-02-02T03:58:10.064Z,90.91
2023-02-02T03:58:41.022Z,90.91
2023-02-02T03:59:11.968Z,90.91
2023-02-02T03:59:42.882Z,91.12
2023-02-02T04:00:13.804Z,90.91
2023-02-02T04:00:44.700Z,90.81
2023-02-02T04:01:15.625Z,90.81
2023-02-02T04:01:46.636Z,90.70
2023-02-02T04:02:17.088Z,90.70
2023-02-02T04:02:48.080Z,90.70
2023-02-02T04:03:18.991Z,90.60
2023-02-02T04:03:49.929Z,90.70
2023-02-02T04:04:20.852Z,90.81
2023-02-02T04:04:51.858Z,90.91
2023-02-02T04:05:23.147Z,90.70
2023-02-02T04:05:53.764Z,90.50
2023-02-02T04:06:24.680Z,90.39
2023-02-02T04:06:55.584Z,90.50
2023-02-02T04:07:26.533Z,90.19
2023-02-02T04:07:57.466Z,90.39
2023-02-02T04:08:28.401Z,90.39
2023-02-02T04:08:59.306Z,90.50
2023-02-02T04:09:30.238Z,90.50
2023-02-02T04:10:01.168Z,90.39
2023-02-02T04:10:32.096Z,90.29
2023-02-02T04:11:03.017Z,90.29
2023-02-02T04:11:33.940Z,90.60
2023-02-02T04:12:04.901Z,90.81
2023-02-02T04:12:35.851Z,90.70
2023-02-02T04:13:06.754Z,90.50
2023-02-02T04:13:37.715Z,90.39
2023-02-02T04:14:08.611Z,90.50
2023-02-02T04:14:39.555Z,90.39
2023-02-02T04:15:10.461Z,90.39
2023-02-02T04:15:41.393Z,90.19
2023-02-02T04:16:12.323Z,90.08
2023-02-02T04:16:43.246Z,90.08
2023-02-02T04:17:14.165Z,90.08
2023-02-02T04:17:45.065Z,90.08
2023-02-02T04:18:46.928Z,90.29
2023-02-02T04:19:17.867Z,90.29
2023-02-02T04:19:48.792Z,90.39
2023-02-02T04:20:19.713Z,90.50
2023-02-02T04:20:50.642Z,90.50
2023-02-02T04:21:21.556Z,90.08
2023-02-02T04:21:52.439Z,90.19
2023-02-02T04:22:23.347Z,90.08
2023-02-02T04:22:54.280Z,90.29
2023-02-02T04:23:25.188Z,90.29
2023-02-02T04:23:56.105Z,90.50
2023-02-02T04:24:27.015Z,90.39
2023-02-02T04:24:57.924Z,90.39
2023-02-02T04:25:28.883Z,90.50
2023-02-02T04:25:59.393Z,90.91
2023-02-02T04:26:30.291Z,90.91
2023-02-02T04:27:01.216Z,91.12
2023-02-02T04:27:32.124Z,91.33
2023-02-02T04:28:03.021Z,91.12
2023-02-02T04:28:33.937Z,90.91
2023-02-02T04:29:04.900Z,91.22
2023-02-02T04:29:35.828Z,91.12
2023-02-02T04:30:06.769Z,91.33
2023-02-02T04:30:37.703Z,91.22
2023-02-02T04:31:08.748Z,91.43
2023-02-02T04:31:39.326Z,91.33
2023-02-02T04:32:10.227Z,91.53
2023-02-02T04:32:41.152Z,91.64
2023-02-02T04:33:12.038Z,91.85
2023-02-02T04:33:43.846Z,91.74
2023-02-02T04:34:13.746Z,91.64
2023-02-02T04:34:44.647Z,91.95
2023-02-02T04:35:15.573Z,92.05
2023-02-02T04:35:46.476Z,91.64
2023-02-02T04:36:17.377Z,91.85
2023-02-02T04:36:48.290Z,92.05
2023-02-02T04:37:19.211Z,91.95
2023-02-02T04:37:50.113Z,92.05
2023-02-02T04:38:21.043Z,92.16
2023-02-02T04:38:51.991Z,92.16
2023-02-02T04:39:22.910Z,92.05
2023-02-02T04:39:53.851Z,91.95
2023-02-02T04:40:24.760Z,91.74
2023-02-02T04:40:55.668Z,91.64
2023-02-02T04:41:26.587Z,91.74
2023-02-02T04:41:57.495Z,91.85
2023-02-02T04:42:28.439Z,91.95
2023-02-02T04:42:58.982Z,91.95
2023-02-02T04:43:29.872Z,91.95
2023-02-02T04:44:00.870Z,91.95
2023-02-02T04:44:31.811Z,91.95
2023-02-02T04:45:02.783Z,92.16
2023-02-02T04:45:33.753Z,91.74
2023-02-02T04:46:04.666Z,91.95
2023-02-02T04:46:35.565Z,91.95
2023-02-02T04:47:06.480Z,92.16
2023-02-02T04:47:37.396Z,92.16
2023-02-02T04:48:08.291Z,92.26
2023-02-02T04:48:39.236Z,91.95
2023-02-02T04:49:10.153Z,92.05
2023-02-02T04:49:41.087Z,92.36
2023-02-02T04:50:12.009Z,92.26
2023-02-02T04:50:42.932Z,92.47
2023-02-02T04:51:13.886Z,92.57
2023-02-02T04:51:44.781Z,92.26
2023-02-02T04:52:15.711Z,91.64
2023-02-02T04:52:46.638Z,91.95
2023-02-02T04:53:17.693Z,92.05
2023-02-02T04:53:48.089Z,92.26
2023-02-02T04:54:18.612Z,92.36
2023-02-02T04:54:49.530Z,92.26
2023-02-02T04:55:20.459Z,92.05
2023-02-02T04:55:51.402Z,92.16
2023-02-02T04:56:22.337Z,92.36
2023-02-02T04:56:53.244Z,92.47
2023-02-02T04:57:24.145Z,92.68
2023-02-02T04:57:55.094Z,92.68
2023-02-02T04:58:26.009Z,92.36
2023-02-02T04:58:56.917Z,92.47
2023-02-02T04:59:27.874Z,92.47
2023-02-02T04:59:58.850Z,92.05
2023-02-02T05:00:29.743Z,92.16
2023-02-02T05:01:00.706Z,92.26
2023-02-02T05:01:31.691Z,92.36
2023-02-02T05:02:02.592Z,92.47
2023-02-02T05:02:33.526Z,92.57
2023-02-02T05:03:04.502Z,92.57
2023-02-02T05:03:35.435Z,92.26
2023-02-02T05:04:06.453Z,92.36
2023-02-02T05:04:37.003Z,92.57
2023-02-02T05:05:07.471Z,92.57
2023-02-02T05:05:38.381Z,92.57
2023-02-02T05:06:09.306Z,92.36
2023-02-02T05:06:40.228Z,92.36
2023-02-02T05:07:11.140Z,92.36
2023-02-02T05:07:41.734Z,92.16
2023-02-02T05:08:12.697Z,92.05
2023-02-02T05:08:43.603Z,92.16
2023-02-02T05:09:14.497Z,92.16
2023-02-02T05:09:45.577Z,91.95
2023-02-02T05:10:15.978Z,91.95
2023-02-02T05:10:46.900Z,92.05
2023-02-02T05:11:17.800Z,91.95
2023-02-02T05:11:48.698Z,91.74
2023-02-02T05:12:19.636Z,91.85
2023-02-02T05:12:50.571Z,91.95
2023-02-02T05:13:21.497Z,91.74
2023-02-02T05:13:52.496Z,91.74
2023-02-02T05:14:23.403Z,91.64
2023-02-02T05:14:54.302Z,91.53
2023-02-02T05:15:25.605Z,91.53
2023-02-02T05:15:55.744Z,91.53
2023-02-02T05:16:28.913Z,91.33
2023-02-02T05:16:57.772Z,91.74
2023-02-02T05:17:28.169Z,91.53
2023-02-02T05:17:59.104Z,91.53
2023-02-02T05:18:30.025Z,91.74
2023-02-02T05:19:01.020Z,91.95
2023-02-02T05:19:31.925Z,91.85
2023-02-02T05:20:02.885Z,91.43
2023-02-02T05:20:33.805Z,91.22
2023-02-02T05:21:04.744Z,91.22
2023-02-02T05:21:35.639Z,91.02
2023-02-02T05:22:06.554Z,91.12
2023-02-02T05:22:37.486Z,91.43
2023-02-02T05:23:08.434Z,91.43
2023-02-02T05:23:39.354Z,91.53
2023-02-02T05:24:10.277Z,90.91
2023-02-02T05:24:41.227Z,91.12
2023-02-02T05:25:12.327Z,91.12
2023-02-02T05:25:42.759Z,90.81
2023-02-02T05:26:13.703Z,90.70
2023-02-02T05:26:44.656Z,91.02
2023-02-02T05:27:15.571Z,91.22
2023-02-02T05:27:46.065Z,91.22
2023-02-02T05:28:16.977Z,91.02
2023-02-02T05:28:47.914Z,90.91
2023-02-02T05:29:18.869Z,90.91
2023-02-02T05:29:49.804Z,91.02
2023-02-02T05:30:20.735Z,90.91
2023-02-02T05:30:51.695Z,91.12
2023-02-02T05:31:22.632Z,90.91
2023-02-02T05:31:53.632Z,91.12
2023-02-02T05:32:24.096Z,91.12
2023-02-02T05:32:55.031Z,90.81
2023-02-02T05:33:56.630Z,90.91
2023-02-02T05:34:27.601Z,90.91
2023-02-02T05:34:58.550Z,90.91
2023-02-02T05:35:29.486Z,90.70
2023-02-02T05:35:59.960Z,90.87
2023-02-02T05:36:31.484Z,90.66
2023-02-02T05:37:01.595Z,90.56
2023-02-02T05:37:32.071Z,90.29
2023-02-02T05:38:04.055Z,90.29
2023-02-02T05:38:33.579Z,90.45
2023-02-02T05:39:04.477Z,90.45
2023-02-02T05:39:35.409Z,90.25
2023-02-02T05:40:06.483Z,90.14
2023-02-02T05:40:36.880Z,90.35
2023-02-02T05:41:07.811Z,90.45
2023-02-02T05:41:38.831Z,90.45
2023-02-02T05:42:09.741Z,90.35
2023-02-02T05:42:40.635Z,90.35
2023-02-02T05:43:11.571Z,90.56
2023-02-02T05:43:42.597Z,90.45
2023-02-02T05:44:13.491Z,90.66
2023-02-02T05:44:44.404Z,90.35
2023-02-02T05:45:15.335Z,90.45
2023-02-02T05:45:46.305Z,90.66
2023-02-02T05:46:16.840Z,90.56
2023-02-02T05:46:47.895Z,90.87
2023-02-02T05:47:18.309Z,90.97
2023-02-02T05:47:49.256Z,91.08
2023-02-02T05:48:20.208Z,91.08
2023-02-02T05:48:51.141Z,91.18
2023-02-02T05:49:22.092Z,91.18
2023-02-02T05:49:53.084Z,91.18
2023-02-02T05:50:24.079Z,91.08
2023-02-02T05:50:54.971Z,91.28
2023-02-02T05:51:25.914Z,91.28
2023-02-02T05:51:56.813Z,91.39
2023-02-02T05:52:27.718Z,91.70
2023-02-02T05:52:58.636Z,91.39
2023-02-02T05:53:29.610Z,91.12
2023-02-02T05:54:01.124Z,91.22
2023-02-02T05:54:31.424Z,91.43
2023-02-02T05:55:01.823Z,91.53
2023-02-02T05:55:32.716Z,91.53
2023-02-02T05:56:03.638Z,91.64
2023-02-02T05:56:34.581Z,91.91
2023-02-02T05:57:06.389Z,92.01
2023-02-02T05:57:36.305Z,91.85
2023-02-02T05:58:07.261Z,91.85
2023-02-02T05:58:38.175Z,91.74
2023-02-02T05:59:09.094Z,91.53
2023-02-02T05:59:40.043Z,91.64
2023-02-02T06:00:10.963Z,91.95
2023-02-02T06:00:41.872Z,91.80
2023-02-02T06:01:12.755Z,91.43
2023-02-02T06:01:43.815Z,91.39
2023-02-02T06:02:14.276Z,91.33
2023-02-02T06:02:45.247Z,91.12
2023-02-02T06:03:15.891Z,90.97
2023-02-02T06:03:46.558Z,91.18
2023-02-02T06:04:17.115Z,91.18
2023-02-02T06:04:47.542Z,91.22
2023-02-02T06:05:18.505Z,91.18
2023-02-02T06:05:49.405Z,91.28
2023-02-02T06:06:20.331Z,91.39
2023-02-02T06:06:51.372Z,91.28
2023-02-02T06:07:21.812Z,91.28
2023-02-02T06:07:52.729Z,91.70
2023-02-02T06:08:23.642Z,91.80
2023-02-02T06:08:54.592Z,91.91
2023-02-02T06:09:25.523Z,91.70
2023-02-02T06:09:56.483Z,91.49
2023-02-02T06:10:27.412Z,91.70
2023-02-02T06:10:58.328Z,91.53
2023-02-02T06:11:29.252Z,91.53
2023-02-02T06:12:00.190Z,91.64
2023-02-02T06:12:31.091Z,91.70
2023-02-02T06:13:02.085Z,91.85
2023-02-02T06:13:33.000Z,91.74
2023-02-02T06:14:03.678Z,91.64
2023-02-02T06:15:05.559Z,91.74
2023-02-02T06:15:36.550Z,91.33
2023-02-02T06:16:07.026Z,91.18
2023-02-02T06:16:37.980Z,91.18
2023-02-02T06:17:08.910Z,91.18
2023-02-02T06:17:39.826Z,91.53
2023-02-02T06:18:10.765Z,91.49
2023-02-02T06:18:41.658Z,91.39
2023-02-02T06:19:12.575Z,91.08
2023-02-02T06:19:43.107Z,91.43
2023-02-02T06:20:14.016Z,91.43
2023-02-02T06:20:44.942Z,91.22
2023-02-02T06:21:15.882Z,91.18
2023-02-02T06:21:46.804Z,91.22
2023-02-02T06:22:17.714Z,91.12
2023-02-02T06:22:48.611Z,91.43
2023-02-02T06:23:19.546Z,91.43
2023-02-02T06:23:50.412Z,91.33
2023-02-02T06:24:21.335Z,91.43
2023-02-02T06:24:52.225Z,91.43
2023-02-02T06:25:23.607Z,91.60
2023-02-02T06:25:53.772Z,91.80
2023-02-02T06:26:24.709Z,91.74
2023-02-02T06:26:55.650Z,91.60
2023-02-02T06:27:26.502Z,91.53
2023-02-02T06:27:57.380Z,91.43
2023-02-02T06:28:28.266Z,91.74
2023-02-02T06:28:59.189Z,91.85
2023-02-02T06:29:30.205Z,91.74
2023-02-02T06:30:01.165Z,91.53
2023-02-02T06:30:32.301Z,91.53
2023-02-02T06:31:02.781Z,91.43
2023-02-02T06:31:33.836Z,91.43
2023-02-02T06:32:04.324Z,91.49
2023-02-02T06:33:06.030Z,92.36
2023-02-02T06:33:36.905Z,92.26
2023-02-02T06:34:07.753Z,92.16
2023-02-02T06:34:38.602Z,92.05
2023-02-02T06:35:09.475Z,91.64
2023-02-02T06:35:40.367Z,91.53
2023-02-02T06:36:11.236Z,91.74
2023-02-02T06:36:42.105Z,91.95
2023-02-02T06:37:12.956Z,91.95
2023-02-02T06:37:43.820Z,91.85
2023-02-02T06:38:14.701Z,91.95
2023-02-02T06:38:45.601Z,91.64
2023-02-02T06:39:16.461Z,91.85
2023-02-02T06:39:47.342Z,91.53
2023-02-02T06:40:18.225Z,91.74
2023-02-02T06:40:49.109Z,91.74
2023-02-02T06:41:19.996Z,91.74
2023-02-02T06:41:50.868Z,91.64